sensor_id;sensor_type;location;lat;lon;timestamp;temperature;humidity
41922;DHT22;27609;51.002;5.354;2023-02-03T00:00:59;10.00;99.90
41922;DHT22;27609;51.002;5.354;2023-02-03T00:03:26;10.00;99.90
41922;DHT22;27609;51.002;5.354;2023-02-03T00:05:52;10.00;99.90
41922;DHT22;27609;51.002;5.354;2023-02-03T00:08:19;9.90;99.90
41922;DHT22;27609;51.002;5.354;2023-02-03T00:10:45;10.00;99.90
41922;DHT22;27609;51.002;5.354;2023-02-03T00:13:11;10.00;99.90
41922;DHT22;27609;51.002;5.354;2023-02-03T00:15:37;10.10;99.90
41922;DHT22;27609;51.002;5.354;2023-02-03T00:18:02;10.00;99.90
41922;DHT22;27609;51.002;5.354;2023-02-03T00:20:28;10.00;99.90
41922;DHT22;27609;51.002;5.354;2023-02-03T00:22:54;9.90;99.90
41922;DHT22;27609;51.002;5.354;2023-02-03T00:25:20;9.90;99.90
41922;DHT22;27609;51.002;5.354;2023-02-03T00:27:46;9.90;99.90
41922;DHT22;27609;51.002;5.354;2023-02-03T00:30:12;9.80;99.90
41922;DHT22;27609;51.002;5.354;2023-02-03T00:32:38;10.00;99.90
41922;DHT22;27609;51.002;5.354;2023-02-03T00:35:04;10.00;99.90
41922;DHT22;27609;51.002;5.354;2023-02-03T00:37:33;10.00;99.90
41922;DHT22;27609;51.002;5.354;2023-02-03T00:39:59;10.00;99.90
41922;DHT22;27609;51.002;5.354;2023-02-03T00:42:25;9.90;99.90
41922;DHT22;27609;51.002;5.354;2023-02-03T00:44:50;10.00;99.90
41922;DHT22;27609;51.002;5.354;2023-02-03T00:47:16;10.10;99.90
41922;DHT22;27609;51.002;5.354;2023-02-03T00:49:42;10.10;99.90
41922;DHT22;27609;51.002;5.354;2023-02-03T00:52:08;10.00;99.90
41922;DHT22;27609;51.002;5.354;2023-02-03T00:54:33;10.00;99.90
41922;DHT22;27609;51.002;5.354;2023-02-03T00:56:59;10.00;99.90
41922;DHT22;27609;51.002;5.354;2023-02-03T00:59:25;10.00;99.90
41922;DHT22;27609;51.002;5.354;2023-02-03T01:01:50;10.00;99.90
41922;DHT22;27609;51.002;5.354;2023-02-03T01:04:16;10.00;99.90
41922;DHT22;27609;51.002;5.354;2023-02-03T01:06:42;10.00;99.90
41922;DHT22;27609;51.002;5.354;2023-02-03T01:09:08;10.00;99.90
41922;DHT22;27609;51.002;5.354;2023-02-03T01:11:34;10.00;99.90
41922;DHT22;27609;51.002;5.354;2023-02-03T01:13:59;10.00;99.90
41922;DHT22;27609;51.002;5.354;2023-02-03T01:19:50;10.00;99.90
41922;DHT22;27609;51.002;5.354;2023-02-03T01:22:15;9.90;99.90
41922;DHT22;27609;51.002;5.354;2023-02-03T01:24:41;10.00;99.90
41922;DHT22;27609;51.002;5.354;2023-02-03T01:27:07;10.00;99.90
41922;DHT22;27609;51.002;5.354;2023-02-03T01:29:33;10.00;99.90
41922;DHT22;27609;51.002;5.354;2023-02-03T01:31:58;10.00;99.90
41922;DHT22;27609;51.002;5.354;2023-02-03T01:34:24;10.00;99.90
41922;DHT22;27609;51.002;5.354;2023-02-03T01:36:50;10.00;99.90
41922;DHT22;27609;51.002;5.354;2023-02-03T01:39:16;10.00;99.90
41922;DHT22;27609;51.002;5.354;2023-02-03T01:41:42;10.00;99.90
41922;DHT22;27609;51.002;5.354;2023-02-03T01:47:12;10.00;99.90
41922;DHT22;27609;51.002;5.354;2023-02-03T01:52:41;10.00;99.90
41922;DHT22;27609;51.002;5.354;2023-02-03T01:55:11;9.90;99.90
41922;DHT22;27609;51.002;5.354;2023-02-03T01:58:06;9.90;99.90
41922;DHT22;27609;51.002;5.354;2023-02-03T02:00:33;10.00;99.90
41922;DHT22;27609;51.002;5.354;2023-02-03T02:03:01;10.00;99.90
41922;DHT22;27609;51.002;5.354;2023-02-03T02:05:34;9.90;99.90
41922;DHT22;27609;51.002;5.354;2023-02-03T02:08:02;10.00;99.90
41922;DHT22;27609;51.002;5.354;2023-02-03T02:10:30;10.00;99.90
41922;DHT22;27609;51.002;5.354;2023-02-03T02:12:58;9.90;99.90
41922;DHT22;27609;51.002;5.354;2023-02-03T02:19:02;9.90;99.90
41922;DHT22;27609;51.002;5.354;2023-02-03T02:36:23;9.80;99.90
41922;DHT22;27609;51.002;5.354;2023-02-03T02:44:22;9.80;99.90
41922;DHT22;27609;51.002;5.354;2023-02-03T02:46:52;9.90;99.90
41922;DHT22;27609;51.002;5.354;2023-02-03T02:49:39;9.90;99.90
41922;DHT22;27609;51.002;5.354;2023-02-03T02:52:07;9.90;99.90
41922;DHT22;27609;51.002;5.354;2023-02-03T02:54:36;10.00;99.90
41922;DHT22;27609;51.002;5.354;2023-02-03T02:57:04;10.10;99.90
41922;DHT22;27609;51.002;5.354;2023-02-03T02:59:31;10.10;99.90
41922;DHT22;27609;51.002;5.354;2023-02-03T03:01:57;10.00;99.90
41922;DHT22;27609;51.002;5.354;2023-02-03T03:07:52;10.00;99.90
41922;DHT22;27609;51.002;5.354;2023-02-03T03:10:22;10.10;99.90
41922;DHT22;27609;51.002;5.354;2023-02-03T03:12:53;10.00;99.90
41922;DHT22;27609;51.002;5.354;2023-02-03T03:15:26;10.00;99.90
41922;DHT22;27609;51.002;5.354;2023-02-03T03:18:17;10.00;99.90
41922;DHT22;27609;51.002;5.354;2023-02-03T03:20:46;10.10;99.90
41922;DHT22;27609;51.002;5.354;2023-02-03T03:23:23;10.20;99.90
41922;DHT22;27609;51.002;5.354;2023-02-03T03:26:38;10.10;99.90
41922;DHT22;27609;51.002;5.354;2023-02-03T03:29:18;10.00;99.90
41922;DHT22;27609;51.002;5.354;2023-02-03T03:31:45;10.10;99.90
41922;DHT22;27609;51.002;5.354;2023-02-03T03:34:12;10.10;99.90
41922;DHT22;27609;51.002;5.354;2023-02-03T03:36:49;9.90;99.90
41922;DHT22;27609;51.002;5.354;2023-02-03T03:39:51;10.00;99.90
41922;DHT22;27609;51.002;5.354;2023-02-03T03:42:24;10.00;99.90
41922;DHT22;27609;51.002;5.354;2023-02-03T03:45:02;10.00;99.90
41922;DHT22;27609;51.002;5.354;2023-02-03T03:47:44;10.00;99.90
41922;DHT22;27609;51.002;5.354;2023-02-03T03:50:15;9.90;99.90
41922;DHT22;27609;51.002;5.354;2023-02-03T03:52:44;10.00;99.90
41922;DHT22;27609;51.002;5.354;2023-02-03T03:55:12;9.90;99.90
41922;DHT22;27609;51.002;5.354;2023-02-03T03:58:04;10.00;99.90
41922;DHT22;27609;51.002;5.354;2023-02-03T04:00:55;10.00;99.90
41922;DHT22;27609;51.002;5.354;2023-02-03T04:06:26;9.80;99.90
41922;DHT22;27609;51.002;5.354;2023-02-03T04:08:52;9.80;99.90
41922;DHT22;27609;51.002;5.354;2023-02-03T04:11:18;9.80;99.90
41922;DHT22;27609;51.002;5.354;2023-02-03T04:14:02;9.90;99.90
41922;DHT22;27609;51.002;5.354;2023-02-03T04:16:28;9.80;99.90
41922;DHT22;27609;51.002;5.354;2023-02-03T04:22:16;9.90;99.90
41922;DHT22;27609;51.002;5.354;2023-02-03T04:28:03;10.00;99.90
41922;DHT22;27609;51.002;5.354;2023-02-03T04:30:30;9.90;99.90
41922;DHT22;27609;51.002;5.354;2023-02-03T04:32:56;9.80;99.90
41922;DHT22;27609;51.002;5.354;2023-02-03T04:35:22;9.90;99.90
41922;DHT22;27609;51.002;5.354;2023-02-03T04:38:06;10.00;99.90
41922;DHT22;27609;51.002;5.354;2023-02-03T04:40:32;10.00;99.90
41922;DHT22;27609;51.002;5.354;2023-02-03T04:42:58;10.00;99.90
41922;DHT22;27609;51.002;5.354;2023-02-03T04:45:41;9.90;99.90
41922;DHT22;27609;51.002;5.354;2023-02-03T04:48:07;9.80;99.90
41922;DHT22;27609;51.002;5.354;2023-02-03T04:50:33;9.90;99.90
41922;DHT22;27609;51.002;5.354;2023-02-03T04:52:58;9.90;99.90
41922;DHT22;27609;51.002;5.354;2023-02-03T04:55:26;9.80;99.90
41922;DHT22;27609;51.002;5.354;2023-02-03T04:57:58;9.90;99.90
41922;DHT22;27609;51.002;5.354;2023-02-03T05:03:46;9.90;99.90
41922;DHT22;27609;51.002;5.354;2023-02-03T05:06:12;9.90;99.90
41922;DHT22;27609;51.002;5.354;2023-02-03T05:08:37;10.00;99.90
41922;DHT22;27609;51.002;5.354;2023-02-03T05:11:14;9.90;99.90
41922;DHT22;27609;51.002;5.354;2023-02-03T05:16:46;10.00;99.90
41922;DHT22;27609;51.002;5.354;2023-02-03T05:19:12;9.90;99.90
41922;DHT22;27609;51.002;5.354;2023-02-03T05:21:38;10.00;99.90
41922;DHT22;27609;51.002;5.354;2023-02-03T05:24:04;10.00;99.90
41922;DHT22;27609;51.002;5.354;2023-02-03T05:26:32;10.00;99.90
41922;DHT22;27609;51.002;5.354;2023-02-03T05:28:58;10.10;99.90
41922;DHT22;27609;51.002;5.354;2023-02-03T05:34:49;10.20;99.90
41922;DHT22;27609;51.002;5.354;2023-02-03T05:37:15;10.10;99.90
41922;DHT22;27609;51.002;5.354;2023-02-03T05:43:15;10.10;99.90
41922;DHT22;27609;51.002;5.354;2023-02-03T05:45:41;10.20;99.90
41922;DHT22;27609;51.002;5.354;2023-02-03T05:48:07;10.10;99.90
41922;DHT22;27609;51.002;5.354;2023-02-03T05:50:34;10.10;99.90
41922;DHT22;27609;51.002;5.354;2023-02-03T05:53:03;10.10;99.90
41922;DHT22;27609;51.002;5.354;2023-02-03T05:55:30;10.10;99.90
41922;DHT22;27609;51.002;5.354;2023-02-03T05:57:56;10.10;99.90
41922;DHT22;27609;51.002;5.354;2023-02-03T06:00:26;10.10;99.90
41922;DHT22;27609;51.002;5.354;2023-02-03T06:02:53;10.00;99.90
41922;DHT22;27609;51.002;5.354;2023-02-03T06:05:19;10.00;99.90
41922;DHT22;27609;51.002;5.354;2023-02-03T06:07:46;9.90;99.90
41922;DHT22;27609;51.002;5.354;2023-02-03T06:10:12;10.10;99.90
41922;DHT22;27609;51.002;5.354;2023-02-03T06:12:38;10.00;99.90
41922;DHT22;27609;51.002;5.354;2023-02-03T06:18:36;10.00;99.90
41922;DHT22;27609;51.002;5.354;2023-02-03T06:24:26;10.00;99.90
41922;DHT22;27609;51.002;5.354;2023-02-03T06:30:20;9.90;99.90
41922;DHT22;27609;51.002;5.354;2023-02-03T06:36:16;10.00;99.90
41922;DHT22;27609;51.002;5.354;2023-02-03T06:42:14;9.90;99.90
41922;DHT22;27609;51.002;5.354;2023-02-03T06:51:24;10.00;99.90
41922;DHT22;27609;51.002;5.354;2023-02-03T06:53:50;10.00;99.90
41922;DHT22;27609;51.002;5.354;2023-02-03T06:56:16;10.00;99.90
41922;DHT22;27609;51.002;5.354;2023-02-03T06:58:41;10.00;99.90
41922;DHT22;27609;51.002;5.354;2023-02-03T07:01:07;10.00;99.90
41922;DHT22;27609;51.002;5.354;2023-02-03T07:03:33;9.90;99.90
41922;DHT22;27609;51.002;5.354;2023-02-03T07:05:58;10.00;99.90
41922;DHT22;27609;51.002;5.354;2023-02-03T07:08:24;9.90;99.90
41922;DHT22;27609;51.002;5.354;2023-02-03T07:10:54;9.90;99.90
41922;DHT22;27609;51.002;5.354;2023-02-03T07:13:19;10.10;99.90
41922;DHT22;27609;51.002;5.354;2023-02-03T07:15:45;10.00;99.90
41922;DHT22;27609;51.002;5.354;2023-02-03T07:18:11;10.00;99.90
41922;DHT22;27609;51.002;5.354;2023-02-03T07:20:36;9.90;99.90
41922;DHT22;27609;51.002;5.354;2023-02-03T07:23:28;9.80;99.90
41922;DHT22;27609;51.002;5.354;2023-02-03T07:29:28;10.10;99.90
41922;DHT22;27609;51.002;5.354;2023-02-03T07:31:56;10.20;99.90
41922;DHT22;27609;51.002;5.354;2023-02-03T07:34:22;10.20;99.90
41922;DHT22;27609;51.002;5.354;2023-02-03T07:36:47;10.20;99.90
41922;DHT22;27609;51.002;5.354;2023-02-03T07:39:13;10.10;99.90
41922;DHT22;27609;51.002;5.354;2023-02-03T07:41:39;10.00;99.90
41922;DHT22;27609;51.002;5.354;2023-02-03T07:44:05;10.10;99.90
41922;DHT22;27609;51.002;5.354;2023-02-03T07:46:30;10.00;99.90
41922;DHT22;27609;51.002;5.354;2023-02-03T07:48:56;10.00;99.90
41922;DHT22;27609;51.002;5.354;2023-02-03T07:51:22;9.90;99.90
41922;DHT22;27609;51.002;5.354;2023-02-03T07:53:48;10.00;99.90
41922;DHT22;27609;51.002;5.354;2023-02-03T07:56:13;10.00;99.90
41922;DHT22;27609;51.002;5.354;2023-02-03T07:58:39;10.00;99.90
41922;DHT22;27609;51.002;5.354;2023-02-03T08:01:10;9.90;99.90
41922;DHT22;27609;51.002;5.354;2023-02-03T08:03:36;10.00;99.90
41922;DHT22;27609;51.002;5.354;2023-02-03T08:06:02;10.00;99.90
41922;DHT22;27609;51.002;5.354;2023-02-03T08:08:28;10.10;99.90
41922;DHT22;27609;51.002;5.354;2023-02-03T08:10:54;10.10;99.90
41922;DHT22;27609;51.002;5.354;2023-02-03T08:13:21;10.00;99.90
41922;DHT22;27609;51.002;5.354;2023-02-03T08:15:47;10.00;99.90
41922;DHT22;27609;51.002;5.354;2023-02-03T08:18:13;10.10;99.90
41922;DHT22;27609;51.002;5.354;2023-02-03T08:20:39;10.10;99.90
41922;DHT22;27609;51.002;5.354;2023-02-03T08:23:04;10.30;99.90
41922;DHT22;27609;51.002;5.354;2023-02-03T08:25:30;10.20;99.90
41922;DHT22;27609;51.002;5.354;2023-02-03T08:27:56;10.20;99.90
41922;DHT22;27609;51.002;5.354;2023-02-03T08:30:22;10.20;99.90
41922;DHT22;27609;51.002;5.354;2023-02-03T08:32:48;10.30;99.90
41922;DHT22;27609;51.002;5.354;2023-02-03T08:35:14;10.30;99.90
41922;DHT22;27609;51.002;5.354;2023-02-03T08:37:43;10.30;99.90
41922;DHT22;27609;51.002;5.354;2023-02-03T08:40:10;10.30;99.90
41922;DHT22;27609;51.002;5.354;2023-02-03T08:42:36;10.20;99.90
41922;DHT22;27609;51.002;5.354;2023-02-03T08:45:03;10.20;99.90
41922;DHT22;27609;51.002;5.354;2023-02-03T08:47:28;10.10;99.90
41922;DHT22;27609;51.002;5.354;2023-02-03T08:49:54;10.10;99.90
41922;DHT22;27609;51.002;5.354;2023-02-03T08:52:20;10.20;99.90
41922;DHT22;27609;51.002;5.354;2023-02-03T08:54:46;10.20;99.90
41922;DHT22;27609;51.002;5.354;2023-02-03T08:57:12;10.30;99.90
41922;DHT22;27609;51.002;5.354;2023-02-03T08:59:40;10.20;99.90
41922;DHT22;27609;51.002;5.354;2023-02-03T09:02:10;10.20;99.90
41922;DHT22;27609;51.002;5.354;2023-02-03T09:04:37;10.20;99.90
41922;DHT22;27609;51.002;5.354;2023-02-03T09:07:03;10.20;99.90
41922;DHT22;27609;51.002;5.354;2023-02-03T09:09:29;10.20;99.90
41922;DHT22;27609;51.002;5.354;2023-02-03T09:11:55;10.20;99.90
41922;DHT22;27609;51.002;5.354;2023-02-03T09:14:27;10.20;99.90
41922;DHT22;27609;51.002;5.354;2023-02-03T09:16:54;10.20;99.90
41922;DHT22;27609;51.002;5.354;2023-02-03T09:19:20;10.30;99.90
41922;DHT22;27609;51.002;5.354;2023-02-03T09:21:45;10.30;99.90
41922;DHT22;27609;51.002;5.354;2023-02-03T09:24:14;10.30;99.90
41922;DHT22;27609;51.002;5.354;2023-02-03T09:26:39;10.20;99.90
41922;DHT22;27609;51.002;5.354;2023-02-03T09:29:05;10.10;99.90
41922;DHT22;27609;51.002;5.354;2023-02-03T09:31:32;10.00;99.90
41922;DHT22;27609;51.002;5.354;2023-02-03T09:33:59;10.00;99.90
41922;DHT22;27609;51.002;5.354;2023-02-03T09:36:25;10.00;99.90
41922;DHT22;27609;51.002;5.354;2023-02-03T09:38:50;10.00;99.90
41922;DHT22;27609;51.002;5.354;2023-02-03T09:55:46;10.10;99.90
41922;DHT22;27609;51.002;5.354;2023-02-03T09:58:17;10.10;99.90
41922;DHT22;27609;51.002;5.354;2023-02-03T10:09:28;10.10;99.90
41922;DHT22;27609;51.002;5.354;2023-02-03T10:12:19;10.00;99.90
41922;DHT22;27609;51.002;5.354;2023-02-03T10:15:08;10.10;99.90
41922;DHT22;27609;51.002;5.354;2023-02-03T10:17:47;10.20;99.90
41922;DHT22;27609;51.002;5.354;2023-02-03T10:20:25;10.40;99.90
41922;DHT22;27609;51.002;5.354;2023-02-03T10:22:58;10.40;99.90
41922;DHT22;27609;51.002;5.354;2023-02-03T10:25:41;10.50;99.90
41922;DHT22;27609;51.002;5.354;2023-02-03T10:28:34;10.50;99.90
41922;DHT22;27609;51.002;5.354;2023-02-03T10:31:07;10.40;99.90
41922;DHT22;27609;51.002;5.354;2023-02-03T10:34:12;10.40;99.90
41922;DHT22;27609;51.002;5.354;2023-02-03T10:39:47;10.40;99.90
41922;DHT22;27609;51.002;5.354;2023-02-03T10:42:14;10.50;99.90
41922;DHT22;27609;51.002;5.354;2023-02-03T10:44:52;10.40;99.90
41922;DHT22;27609;51.002;5.354;2023-02-03T10:47:39;10.40;99.90
41922;DHT22;27609;51.002;5.354;2023-02-03T10:50:18;10.40;99.90
41922;DHT22;27609;51.002;5.354;2023-02-03T10:52:44;10.30;99.90
41922;DHT22;27609;51.002;5.354;2023-02-03T11:01:15;10.40;99.90
41922;DHT22;27609;51.002;5.354;2023-02-03T11:03:59;10.40;99.90
41922;DHT22;27609;51.002;5.354;2023-02-03T11:06:26;10.60;99.90
41922;DHT22;27609;51.002;5.354;2023-02-03T11:08:52;10.60;99.90
41922;DHT22;27609;51.002;5.354;2023-02-03T11:11:27;10.60;99.90
41922;DHT22;27609;51.002;5.354;2023-02-03T11:16:29;10.60;99.90
41922;DHT22;27609;51.002;5.354;2023-02-03T11:23:02;10.80;99.90
41922;DHT22;27609;51.002;5.354;2023-02-03T11:32:39;10.80;99.90
41922;DHT22;27609;51.002;5.354;2023-02-03T11:38:32;11.10;99.90
41922;DHT22;27609;51.002;5.354;2023-02-03T11:41:01;11.10;99.90
41922;DHT22;27609;51.002;5.354;2023-02-03T11:43:27;11.20;99.90
41922;DHT22;27609;51.002;5.354;2023-02-03T11:45:59;11.10;99.90
41922;DHT22;27609;51.002;5.354;2023-02-03T12:19:17;10.70;99.90
41922;DHT22;27609;51.002;5.354;2023-02-03T12:22:14;10.70;99.90
41922;DHT22;27609;51.002;5.354;2023-02-03T12:25:06;10.70;99.90
41922;DHT22;27609;51.002;5.354;2023-02-03T12:40:22;10.90;99.90
41922;DHT22;27609;51.002;5.354;2023-02-03T12:42:56;10.90;99.90
41922;DHT22;27609;51.002;5.354;2023-02-03T13:18:25;10.90;99.90
41922;DHT22;27609;51.002;5.354;2023-02-03T13:24:28;10.90;99.90
41922;DHT22;27609;51.002;5.354;2023-02-03T13:40:31;10.90;99.90
41922;DHT22;27609;51.002;5.354;2023-02-03T13:46:30;11.00;99.90
41922;DHT22;27609;51.002;5.354;2023-02-03T13:55:58;10.90;99.90
41922;DHT22;27609;51.002;5.354;2023-02-03T14:21:23;11.20;99.90
41922;DHT22;27609;51.002;5.354;2023-02-03T14:37:31;11.10;99.90
41922;DHT22;27609;51.002;5.354;2023-02-03T14:56:45;11.10;99.90
41922;DHT22;27609;51.002;5.354;2023-02-03T15:12:51;11.20;99.90
41922;DHT22;27609;51.002;5.354;2023-02-03T15:19:00;11.10;99.90
41922;DHT22;27609;51.002;5.354;2023-02-03T15:31:40;11.30;99.90
41922;DHT22;27609;51.002;5.354;2023-02-03T15:34:29;11.30;99.90
41922;DHT22;27609;51.002;5.354;2023-02-03T15:37:02;11.30;99.90
41922;DHT22;27609;51.002;5.354;2023-02-03T15:41:57;11.50;99.90
41922;DHT22;27609;51.002;5.354;2023-02-03T15:44:33;11.50;99.90
41922;DHT22;27609;51.002;5.354;2023-02-03T15:47:01;11.60;99.90
41922;DHT22;27609;51.002;5.354;2023-02-03T15:49:33;11.60;99.90
41922;DHT22;27609;51.002;5.354;2023-02-03T15:52:07;11.50;99.90
41922;DHT22;27609;51.002;5.354;2023-02-03T15:54:38;11.40;99.90
41922;DHT22;27609;51.002;5.354;2023-02-03T15:57:08;11.30;99.90
41922;DHT22;27609;51.002;5.354;2023-02-03T15:59:40;11.30;99.90
41922;DHT22;27609;51.002;5.354;2023-02-03T16:02:28;11.30;99.90
41922;DHT22;27609;51.002;5.354;2023-02-03T16:04:55;11.30;99.90
41922;DHT22;27609;51.002;5.354;2023-02-03T16:07:24;11.40;99.90
41922;DHT22;27609;51.002;5.354;2023-02-03T16:09:58;11.40;99.90
41922;DHT22;27609;51.002;5.354;2023-02-03T16:12:29;11.30;99.90
41922;DHT22;27609;51.002;5.354;2023-02-03T16:14:57;11.20;99.90
41922;DHT22;27609;51.002;5.354;2023-02-03T16:17:33;11.30;99.90
41922;DHT22;27609;51.002;5.354;2023-02-03T16:20:22;11.30;99.90
41922;DHT22;27609;51.002;5.354;2023-02-03T16:23:18;11.20;99.90
41922;DHT22;27609;51.002;5.354;2023-02-03T16:28:39;11.20;99.90
41922;DHT22;27609;51.002;5.354;2023-02-03T16:31:23;11.20;99.90
41922;DHT22;27609;51.002;5.354;2023-02-03T16:34:16;11.30;99.90
41922;DHT22;27609;51.002;5.354;2023-02-03T16:37:00;11.20;99.90
41922;DHT22;27609;51.002;5.354;2023-02-03T16:39:45;11.10;99.90
41922;DHT22;27609;51.002;5.354;2023-02-03T16:42:56;11.00;99.90
41922;DHT22;27609;51.002;5.354;2023-02-03T16:52:29;11.10;99.90
41922;DHT22;27609;51.002;5.354;2023-02-03T16:54:55;11.00;99.90
41922;DHT22;27609;51.002;5.354;2023-02-03T16:57:21;11.00;99.90
41922;DHT22;27609;51.002;5.354;2023-02-03T17:06:37;11.00;99.90
41922;DHT22;27609;51.002;5.354;2023-02-03T17:09:24;10.90;99.90
41922;DHT22;27609;51.002;5.354;2023-02-03T17:11:50;11.00;99.90
41922;DHT22;27609;51.002;5.354;2023-02-03T17:14:16;11.00;99.90
41922;DHT22;27609;51.002;5.354;2023-02-03T17:16:41;11.00;99.90
41922;DHT22;27609;51.002;5.354;2023-02-03T17:19:11;10.90;99.90
41922;DHT22;27609;51.002;5.354;2023-02-03T17:21:37;10.90;99.90
41922;DHT22;27609;51.002;5.354;2023-02-03T17:24:04;11.00;99.90
41922;DHT22;27609;51.002;5.354;2023-02-03T17:26:30;11.00;99.90
41922;DHT22;27609;51.002;5.354;2023-02-03T17:28:55;11.00;99.90
41922;DHT22;27609;51.002;5.354;2023-02-03T17:31:28;10.90;99.90
41922;DHT22;27609;51.002;5.354;2023-02-03T17:33:54;11.00;99.90
41922;DHT22;27609;51.002;5.354;2023-02-03T17:36:20;11.10;99.90
41922;DHT22;27609;51.002;5.354;2023-02-03T17:38:50;11.10;99.90
41922;DHT22;27609;51.002;5.354;2023-02-03T17:41:18;11.00;99.90
41922;DHT22;27609;51.002;5.354;2023-02-03T17:43:44;10.70;99.90
41922;DHT22;27609;51.002;5.354;2023-02-03T17:49:34;11.10;99.90
41922;DHT22;27609;51.002;5.354;2023-02-03T17:51:59;11.00;99.90
41922;DHT22;27609;51.002;5.354;2023-02-03T17:54:25;11.00;99.90
41922;DHT22;27609;51.002;5.354;2023-02-03T17:57:16;10.90;99.90
41922;DHT22;27609;51.002;5.354;2023-02-03T17:59:42;11.00;99.90
41922;DHT22;27609;51.002;5.354;2023-02-03T18:02:08;11.00;99.90
41922;DHT22;27609;51.002;5.354;2023-02-03T18:04:36;11.10;99.90
41922;DHT22;27609;51.002;5.354;2023-02-03T18:07:02;11.10;99.90
41922;DHT22;27609;51.002;5.354;2023-02-03T18:09:28;10.90;99.90
41922;DHT22;27609;51.002;5.354;2023-02-03T18:11:56;10.90;99.90
41922;DHT22;27609;51.002;5.354;2023-02-03T18:14:22;10.90;99.90
41922;DHT22;27609;51.002;5.354;2023-02-03T18:16:48;10.70;99.90
41922;DHT22;27609;51.002;5.354;2023-02-03T18:19:14;10.70;99.90
41922;DHT22;27609;51.002;5.354;2023-02-03T18:21:41;10.80;99.90
41922;DHT22;27609;51.002;5.354;2023-02-03T18:24:08;10.70;99.90
41922;DHT22;27609;51.002;5.354;2023-02-03T18:26:35;10.60;99.90
41922;DHT22;27609;51.002;5.354;2023-02-03T18:29:09;10.60;99.90
41922;DHT22;27609;51.002;5.354;2023-02-03T18:31:36;10.70;99.90
41922;DHT22;27609;51.002;5.354;2023-02-03T18:34:03;10.60;99.90
41922;DHT22;27609;51.002;5.354;2023-02-03T18:36:29;10.50;99.90
41922;DHT22;27609;51.002;5.354;2023-02-03T18:38:54;10.60;99.90
41922;DHT22;27609;51.002;5.354;2023-02-03T18:41:23;10.70;99.90
41922;DHT22;27609;51.002;5.354;2023-02-03T18:43:49;10.60;99.90
41922;DHT22;27609;51.002;5.354;2023-02-03T18:46:27;10.60;99.90
41922;DHT22;27609;51.002;5.354;2023-02-03T18:48:53;10.60;99.90
41922;DHT22;27609;51.002;5.354;2023-02-03T18:51:21;10.50;99.90
41922;DHT22;27609;51.002;5.354;2023-02-03T18:53:48;10.70;99.90
41922;DHT22;27609;51.002;5.354;2023-02-03T18:56:27;10.70;99.90
41922;DHT22;27609;51.002;5.354;2023-02-03T18:59:04;10.70;99.90
41922;DHT22;27609;51.002;5.354;2023-02-03T19:01:30;10.80;99.90
41922;DHT22;27609;51.002;5.354;2023-02-03T19:03:58;10.70;99.90
41922;DHT22;27609;51.002;5.354;2023-02-03T19:06:25;10.50;99.90
41922;DHT22;27609;51.002;5.354;2023-02-03T19:08:51;10.40;99.90
41922;DHT22;27609;51.002;5.354;2023-02-03T19:11:17;10.40;99.90
41922;DHT22;27609;51.002;5.354;2023-02-03T19:13:43;10.50;99.90
41922;DHT22;27609;51.002;5.354;2023-02-03T19:16:12;10.60;99.90
41922;DHT22;27609;51.002;5.354;2023-02-03T19:18:38;10.60;99.90
41922;DHT22;27609;51.002;5.354;2023-02-03T19:21:04;10.60;99.90
41922;DHT22;27609;51.002;5.354;2023-02-03T19:23:30;10.70;99.90
41922;DHT22;27609;51.002;5.354;2023-02-03T19:25:56;10.70;99.90
41922;DHT22;27609;51.002;5.354;2023-02-03T19:28:22;10.70;99.90
41922;DHT22;27609;51.002;5.354;2023-02-03T19:30:48;10.50;99.90
41922;DHT22;27609;51.002;5.354;2023-02-03T19:33:13;10.40;99.90
41922;DHT22;27609;51.002;5.354;2023-02-03T19:35:40;10.30;99.90
41922;DHT22;27609;51.002;5.354;2023-02-03T19:38:07;10.30;99.90
41922;DHT22;27609;51.002;5.354;2023-02-03T19:43:36;10.40;99.90
41922;DHT22;27609;51.002;5.354;2023-02-03T19:46:01;10.40;99.90
41922;DHT22;27609;51.002;5.354;2023-02-03T19:48:27;10.40;99.90
41922;DHT22;27609;51.002;5.354;2023-02-03T19:50:53;10.50;99.90
41922;DHT22;27609;51.002;5.354;2023-02-03T19:53:19;10.40;99.90
41922;DHT22;27609;51.002;5.354;2023-02-03T19:55:46;10.40;99.90
41922;DHT22;27609;51.002;5.354;2023-02-03T19:58:12;10.30;99.90
41922;DHT22;27609;51.002;5.354;2023-02-03T20:00:39;10.40;99.90
41922;DHT22;27609;51.002;5.354;2023-02-03T20:03:05;10.40;99.90
41922;DHT22;27609;51.002;5.354;2023-02-03T20:05:31;10.40;99.90
41922;DHT22;27609;51.002;5.354;2023-02-03T20:07:58;10.40;99.90
41922;DHT22;27609;51.002;5.354;2023-02-03T20:10:24;10.20;99.90
41922;DHT22;27609;51.002;5.354;2023-02-03T20:12:53;10.20;99.90
41922;DHT22;27609;51.002;5.354;2023-02-03T20:15:20;10.20;99.90
41922;DHT22;27609;51.002;5.354;2023-02-03T20:17:46;10.30;99.90
41922;DHT22;27609;51.002;5.354;2023-02-03T20:20:11;10.20;99.90
41922;DHT22;27609;51.002;5.354;2023-02-03T20:22:37;10.10;99.90
41922;DHT22;27609;51.002;5.354;2023-02-03T20:25:03;10.00;99.90
41922;DHT22;27609;51.002;5.354;2023-02-03T20:27:30;10.00;99.90
41922;DHT22;27609;51.002;5.354;2023-02-03T20:29:56;9.90;99.90
41922;DHT22;27609;51.002;5.354;2023-02-03T20:32:22;9.90;99.90
41922;DHT22;27609;51.002;5.354;2023-02-03T20:34:49;9.90;99.90
41922;DHT22;27609;51.002;5.354;2023-02-03T20:37:14;9.90;99.90
41922;DHT22;27609;51.002;5.354;2023-02-03T20:39:40;10.00;99.90
41922;DHT22;27609;51.002;5.354;2023-02-03T20:42:13;9.90;99.90
41922;DHT22;27609;51.002;5.354;2023-02-03T20:44:40;10.00;99.90
41922;DHT22;27609;51.002;5.354;2023-02-03T20:47:11;10.10;99.90
41922;DHT22;27609;51.002;5.354;2023-02-03T20:49:37;10.10;99.90
41922;DHT22;27609;51.002;5.354;2023-02-03T20:52:12;10.20;99.90
41922;DHT22;27609;51.002;5.354;2023-02-03T20:54:54;10.10;99.90
41922;DHT22;27609;51.002;5.354;2023-02-03T20:57:21;10.20;99.90
41922;DHT22;27609;51.002;5.354;2023-02-03T20:59:47;10.20;99.90
41922;DHT22;27609;51.002;5.354;2023-02-03T21:02:17;10.20;99.90
41922;DHT22;27609;51.002;5.354;2023-02-03T21:04:43;10.10;99.90
41922;DHT22;27609;51.002;5.354;2023-02-03T21:07:27;10.10;99.90
41922;DHT22;27609;51.002;5.354;2023-02-03T21:09:56;10.10;99.90
41922;DHT22;27609;51.002;5.354;2023-02-03T21:12:22;10.00;99.90
41922;DHT22;27609;51.002;5.354;2023-02-03T21:14:48;10.00;99.90
41922;DHT22;27609;51.002;5.354;2023-02-03T21:17:20;10.00;99.90
41922;DHT22;27609;51.002;5.354;2023-02-03T21:19:46;10.10;99.90
41922;DHT22;27609;51.002;5.354;2023-02-03T21:22:16;10.10;99.90
41922;DHT22;27609;51.002;5.354;2023-02-03T21:24:51;10.30;99.90
41922;DHT22;27609;51.002;5.354;2023-02-03T21:27:37;10.20;99.90
41922;DHT22;27609;51.002;5.354;2023-02-03T21:30:29;10.20;99.90
41922;DHT22;27609;51.002;5.354;2023-02-03T21:32:58;10.20;99.90
41922;DHT22;27609;51.002;5.354;2023-02-03T21:37:52;10.20;99.90